Airfield :
LOGIN :

Register | Disclaimer

   EN    FR    IT 

 










Legend :    VFR   Marginal VFR   IFR   Intensive IFR   Very Intensive IFR
Visi :
Ceiling :
>= 8 km
>= 3000ft
5 to 8 km
1000 to 3000 ft
1500m to 5 km
500 to 1000 ft
800 to 1500m
200 to 500 ft
< 800m
< 200 ft
Symbols :   Thunderstorms  Fog  Heavy snow  Heavy precipitations  Wind > 20 kt
SIGMETs :     Misc.  Thunderstorms  Icing  Turbulence  Mountain Waves  Volcanic Ashes






- Airport Elevation : 1020 ft
- IATA code : ILZ


LZZI - Žilina

CURRENT METAR :
  • 201500Z 16013G24KT 110V210 9999 -SHRA VCTS FEW032CB SCT046 20/09 Q1012

EXPIRED METARs :
  • 201430Z 27005KT 240V310 9999 VCTS FEW038CB SCT046 24/12 Q1012
  • 201400Z VRB02KT 9999 SCT045 24/12 Q1012
  • 201330Z VRB02KT 9999 SCT043 24/11 Q1012
  • 201300Z VRB02KT 9999 SCT038 23/10 Q1012
  • 201230Z VRB02KT 9999 FEW036 23/11 Q1012
  • 201200Z VRB01KT 9999 FEW032 22/11 Q1013
  • 201130Z VRB01KT 9999 FEW030 21/11 Q1013
  • 201100Z VRB02KT 9999 FEW030 21/13 Q1013
  • 201030Z VRB02KT 9999 FEW036 20/12 Q1013

TAF TAF LZZI
Valid from the 20 at 15:00 until the 21 at 00:00 UTC


201415Z 2015/2100 VRB02KT 9999 SCT040
TEMPO 2015/2018 -TSRA FEW025 SCT035CB BKN040
PROB30
TEMPO 2015/2018 18015G25KT 3500 TSRA
TEMPO 2020/2100 2500 BR BCFG SCT004
PROB30
TEMPO 2021/2100 0300 FG BKN002



MET'MAP, your aeronautical weather chart ! - Copyright ORBIFLY December 2007 - Disclaimer

ORBIFLY MET'MAP TEAM :

Programming & Development : Alexandra Zaïnal
Original concept : Baudouin d'Aumeries
Technical & hardware support : Manuel Goepfert
Assistance : Marc-Olivier Méhu




SOURCES & CREDITS :

   NOAA